sensor_id;sensor_type;location;lat;lon;timestamp;temperature;humidity
5697;DHT22;2873;50.966;7.210;2022-10-17T00:00:20;17.90;99.90
5697;DHT22;2873;50.966;7.210;2022-10-17T00:02:45;17.90;99.90
5697;DHT22;2873;50.966;7.210;2022-10-17T00:05:11;17.90;99.90
5697;DHT22;2873;50.966;7.210;2022-10-17T00:07:37;17.90;99.90
5697;DHT22;2873;50.966;7.210;2022-10-17T00:10:04;17.90;99.90
5697;DHT22;2873;50.966;7.210;2022-10-17T00:12:30;17.90;99.90
5697;DHT22;2873;50.966;7.210;2022-10-17T00:14:56;18.00;99.90
5697;DHT22;2873;50.966;7.210;2022-10-17T00:17:21;17.90;99.90
5697;DHT22;2873;50.966;7.210;2022-10-17T00:19:47;17.90;99.90
5697;DHT22;2873;50.966;7.210;2022-10-17T00:22:12;17.90;99.90
5697;DHT22;2873;50.966;7.210;2022-10-17T00:24:38;17.90;99.90
5697;DHT22;2873;50.966;7.210;2022-10-17T00:27:04;17.90;99.90
5697;DHT22;2873;50.966;7.210;2022-10-17T00:29:29;17.80;99.90
5697;DHT22;2873;50.966;7.210;2022-10-17T00:31:56;17.70;99.90
5697;DHT22;2873;50.966;7.210;2022-10-17T00:34:22;17.70;99.90
5697;DHT22;2873;50.966;7.210;2022-10-17T00:36:48;17.70;99.90
5697;DHT22;2873;50.966;7.210;2022-10-17T00:39:13;17.60;99.90
5697;DHT22;2873;50.966;7.210;2022-10-17T00:41:39;17.50;99.90
5697;DHT22;2873;50.966;7.210;2022-10-17T00:44:06;17.60;99.90
5697;DHT22;2873;50.966;7.210;2022-10-17T00:46:37;17.50;99.90
5697;DHT22;2873;50.966;7.210;2022-10-17T00:49:06;17.60;99.90
5697;DHT22;2873;50.966;7.210;2022-10-17T00:51:42;17.70;99.90
5697;DHT22;2873;50.966;7.210;2022-10-17T00:54:08;17.70;99.90
5697;DHT22;2873;50.966;7.210;2022-10-17T00:56:34;17.70;99.90
5697;DHT22;2873;50.966;7.210;2022-10-17T00:59:01;17.80;99.90
5697;DHT22;2873;50.966;7.210;2022-10-17T01:01:26;17.50;99.90
5697;DHT22;2873;50.966;7.210;2022-10-17T01:03:52;17.80;99.90
5697;DHT22;2873;50.966;7.210;2022-10-17T01:06:17;17.70;99.90
5697;DHT22;2873;50.966;7.210;2022-10-17T01:08:44;17.60;99.90
5697;DHT22;2873;50.966;7.210;2022-10-17T01:14:08;17.60;99.90
5697;DHT22;2873;50.966;7.210;2022-10-17T01:16:54;17.60;99.90
5697;DHT22;2873;50.966;7.210;2022-10-17T01:22:02;17.60;99.90
5697;DHT22;2873;50.966;7.210;2022-10-17T01:29:46;17.50;99.90
5697;DHT22;2873;50.966;7.210;2022-10-17T01:32:17;17.60;99.90
5697;DHT22;2873;50.966;7.210;2022-10-17T01:40:21;17.60;99.90
5697;DHT22;2873;50.966;7.210;2022-10-17T01:43:34;17.60;99.90
5697;DHT22;2873;50.966;7.210;2022-10-17T01:46:15;17.70;99.90
5697;DHT22;2873;50.966;7.210;2022-10-17T01:48:44;17.70;99.90
5697;DHT22;2873;50.966;7.210;2022-10-17T01:51:55;17.60;99.90
5697;DHT22;2873;50.966;7.210;2022-10-17T01:54:20;17.50;99.90
5697;DHT22;2873;50.966;7.210;2022-10-17T01:56:49;17.60;99.90
5697;DHT22;2873;50.966;7.210;2022-10-17T01:59:19;17.50;99.90
5697;DHT22;2873;50.966;7.210;2022-10-17T02:01:48;17.50;99.90
5697;DHT22;2873;50.966;7.210;2022-10-17T02:04:15;17.60;99.90
5697;DHT22;2873;50.966;7.210;2022-10-17T02:06:40;17.60;99.90
5697;DHT22;2873;50.966;7.210;2022-10-17T02:09:23;17.70;99.90
5697;DHT22;2873;50.966;7.210;2022-10-17T02:12:33;17.60;99.90
5697;DHT22;2873;50.966;7.210;2022-10-17T02:17:45;17.60;99.90
5697;DHT22;2873;50.966;7.210;2022-10-17T02:20:27;17.50;99.90
5697;DHT22;2873;50.966;7.210;2022-10-17T02:23:08;17.40;99.90
5697;DHT22;2873;50.966;7.210;2022-10-17T02:28:18;17.40;99.90
5697;DHT22;2873;50.966;7.210;2022-10-17T02:31:17;17.40;99.90
5697;DHT22;2873;50.966;7.210;2022-10-17T02:34:52;17.40;99.90
5697;DHT22;2873;50.966;7.210;2022-10-17T02:36:49;17.40;99.90
5697;DHT22;2873;50.966;7.210;2022-10-17T02:39:19;17.40;99.90
5697;DHT22;2873;50.966;7.210;2022-10-17T02:41:47;17.40;99.90
5697;DHT22;2873;50.966;7.210;2022-10-17T02:44:14;17.30;99.90
5697;DHT22;2873;50.966;7.210;2022-10-17T02:46:41;17.30;99.90
5697;DHT22;2873;50.966;7.210;2022-10-17T02:49:17;17.30;99.90
5697;DHT22;2873;50.966;7.210;2022-10-17T02:51:51;17.40;99.90
5697;DHT22;2873;50.966;7.210;2022-10-17T02:57:32;17.40;99.90
5697;DHT22;2873;50.966;7.210;2022-10-17T03:00:00;17.40;99.90
5697;DHT22;2873;50.966;7.210;2022-10-17T03:02:26;17.40;99.90
5697;DHT22;2873;50.966;7.210;2022-10-17T03:04:52;17.20;99.90
5697;DHT22;2873;50.966;7.210;2022-10-17T03:07:17;17.30;99.90
5697;DHT22;2873;50.966;7.210;2022-10-17T03:09:43;17.20;99.90
5697;DHT22;2873;50.966;7.210;2022-10-17T03:12:08;17.30;99.90
5697;DHT22;2873;50.966;7.210;2022-10-17T03:14:34;17.20;99.90
5697;DHT22;2873;50.966;7.210;2022-10-17T03:17:00;17.30;99.90
5697;DHT22;2873;50.966;7.210;2022-10-17T03:19:25;17.30;99.90
5697;DHT22;2873;50.966;7.210;2022-10-17T03:21:51;17.30;99.90
5697;DHT22;2873;50.966;7.210;2022-10-17T03:24:16;17.30;99.90
5697;DHT22;2873;50.966;7.210;2022-10-17T03:26:42;17.40;99.90
5697;DHT22;2873;50.966;7.210;2022-10-17T03:29:08;17.40;99.90
5697;DHT22;2873;50.966;7.210;2022-10-17T03:31:33;17.40;99.90
5697;DHT22;2873;50.966;7.210;2022-10-17T03:34:01;17.30;99.90
5697;DHT22;2873;50.966;7.210;2022-10-17T03:36:27;17.20;99.90
5697;DHT22;2873;50.966;7.210;2022-10-17T03:38:53;17.30;99.90
5697;DHT22;2873;50.966;7.210;2022-10-17T03:41:19;17.30;99.90
5697;DHT22;2873;50.966;7.210;2022-10-17T03:43:44;17.30;99.90
5697;DHT22;2873;50.966;7.210;2022-10-17T03:46:10;17.30;99.90
5697;DHT22;2873;50.966;7.210;2022-10-17T03:48:35;17.30;99.90
5697;DHT22;2873;50.966;7.210;2022-10-17T03:51:04;17.30;99.90
5697;DHT22;2873;50.966;7.210;2022-10-17T03:53:30;17.40;99.90
5697;DHT22;2873;50.966;7.210;2022-10-17T03:55:56;17.40;99.90
5697;DHT22;2873;50.966;7.210;2022-10-17T03:58:22;17.50;99.90
5697;DHT22;2873;50.966;7.210;2022-10-17T04:00:47;17.40;99.90
5697;DHT22;2873;50.966;7.210;2022-10-17T04:03:13;17.40;99.90
5697;DHT22;2873;50.966;7.210;2022-10-17T04:05:38;17.40;99.90
5697;DHT22;2873;50.966;7.210;2022-10-17T04:08:04;17.40;99.90
5697;DHT22;2873;50.966;7.210;2022-10-17T04:10:30;17.30;99.90
5697;DHT22;2873;50.966;7.210;2022-10-17T04:12:55;17.30;99.90
5697;DHT22;2873;50.966;7.210;2022-10-17T04:15:21;17.40;99.90
5697;DHT22;2873;50.966;7.210;2022-10-17T04:17:46;17.40;99.90
5697;DHT22;2873;50.966;7.210;2022-10-17T04:20:12;17.40;99.90
5697;DHT22;2873;50.966;7.210;2022-10-17T04:22:38;17.40;99.90
5697;DHT22;2873;50.966;7.210;2022-10-17T04:25:03;17.30;99.90
5697;DHT22;2873;50.966;7.210;2022-10-17T04:27:29;17.30;99.90
5697;DHT22;2873;50.966;7.210;2022-10-17T04:29:55;17.20;99.90
5697;DHT22;2873;50.966;7.210;2022-10-17T04:32:20;17.20;99.90
5697;DHT22;2873;50.966;7.210;2022-10-17T04:34:49;17.30;99.90
5697;DHT22;2873;50.966;7.210;2022-10-17T04:37:15;17.30;99.90
5697;DHT22;2873;50.966;7.210;2022-10-17T04:39:40;17.30;99.90
5697;DHT22;2873;50.966;7.210;2022-10-17T04:42:06;17.30;99.90
5697;DHT22;2873;50.966;7.210;2022-10-17T04:44:32;17.10;99.90
5697;DHT22;2873;50.966;7.210;2022-10-17T04:46:58;17.30;99.90
5697;DHT22;2873;50.966;7.210;2022-10-17T04:49:24;17.20;99.90
5697;DHT22;2873;50.966;7.210;2022-10-17T04:51:49;17.20;99.90
5697;DHT22;2873;50.966;7.210;2022-10-17T04:54:15;17.20;99.90
5697;DHT22;2873;50.966;7.210;2022-10-17T04:56:40;17.20;99.90
5697;DHT22;2873;50.966;7.210;2022-10-17T04:59:06;17.30;99.90
5697;DHT22;2873;50.966;7.210;2022-10-17T05:01:31;17.30;99.90
5697;DHT22;2873;50.966;7.210;2022-10-17T05:03:57;17.30;99.90
5697;DHT22;2873;50.966;7.210;2022-10-17T05:06:24;17.30;99.90
5697;DHT22;2873;50.966;7.210;2022-10-17T05:08:52;17.30;99.90
5697;DHT22;2873;50.966;7.210;2022-10-17T05:11:22;17.30;99.90
5697;DHT22;2873;50.966;7.210;2022-10-17T05:13:53;17.20;99.90
5697;DHT22;2873;50.966;7.210;2022-10-17T05:16:19;17.30;99.90
5697;DHT22;2873;50.966;7.210;2022-10-17T05:18:50;17.10;99.90
5697;DHT22;2873;50.966;7.210;2022-10-17T05:21:16;17.00;99.90
5697;DHT22;2873;50.966;7.210;2022-10-17T05:23:42;17.00;99.90
5697;DHT22;2873;50.966;7.210;2022-10-17T05:26:08;17.00;99.90
5697;DHT22;2873;50.966;7.210;2022-10-17T05:28:34;16.80;99.90
5697;DHT22;2873;50.966;7.210;2022-10-17T05:31:07;16.90;99.90
5697;DHT22;2873;50.966;7.210;2022-10-17T05:33:34;16.90;99.90
5697;DHT22;2873;50.966;7.210;2022-10-17T05:36:00;16.90;99.90
5697;DHT22;2873;50.966;7.210;2022-10-17T05:38:26;16.80;99.90
5697;DHT22;2873;50.966;7.210;2022-10-17T05:40:59;16.90;99.90
5697;DHT22;2873;50.966;7.210;2022-10-17T05:43:25;16.90;99.90
5697;DHT22;2873;50.966;7.210;2022-10-17T05:45:51;16.90;99.90
5697;DHT22;2873;50.966;7.210;2022-10-17T05:48:17;16.90;99.90
5697;DHT22;2873;50.966;7.210;2022-10-17T05:50:42;17.00;99.90
5697;DHT22;2873;50.966;7.210;2022-10-17T05:53:08;16.90;99.90
5697;DHT22;2873;50.966;7.210;2022-10-17T05:55:34;16.90;99.90
5697;DHT22;2873;50.966;7.210;2022-10-17T05:58:00;16.90;99.90
5697;DHT22;2873;50.966;7.210;2022-10-17T06:00:26;17.00;99.90
5697;DHT22;2873;50.966;7.210;2022-10-17T06:02:51;17.10;99.90
5697;DHT22;2873;50.966;7.210;2022-10-17T06:05:17;17.00;99.90
5697;DHT22;2873;50.966;7.210;2022-10-17T06:07:43;17.00;99.90
5697;DHT22;2873;50.966;7.210;2022-10-17T06:10:10;16.90;99.90
5697;DHT22;2873;50.966;7.210;2022-10-17T06:12:41;16.90;99.90
5697;DHT22;2873;50.966;7.210;2022-10-17T06:15:07;17.00;99.90
5697;DHT22;2873;50.966;7.210;2022-10-17T06:17:33;17.00;99.90
5697;DHT22;2873;50.966;7.210;2022-10-17T06:19:59;17.10;99.90
5697;DHT22;2873;50.966;7.210;2022-10-17T06:22:25;17.10;99.90
5697;DHT22;2873;50.966;7.210;2022-10-17T06:24:50;17.10;99.90
5697;DHT22;2873;50.966;7.210;2022-10-17T06:27:18;17.10;99.90
5697;DHT22;2873;50.966;7.210;2022-10-17T06:29:44;17.10;99.90
5697;DHT22;2873;50.966;7.210;2022-10-17T06:32:10;17.10;99.90
5697;DHT22;2873;50.966;7.210;2022-10-17T06:34:35;17.20;99.90
5697;DHT22;2873;50.966;7.210;2022-10-17T06:37:01;17.40;99.90
5697;DHT22;2873;50.966;7.210;2022-10-17T06:39:26;17.40;99.90
5697;DHT22;2873;50.966;7.210;2022-10-17T06:42:01;17.40;99.90
5697;DHT22;2873;50.966;7.210;2022-10-17T06:44:27;17.50;99.90
5697;DHT22;2873;50.966;7.210;2022-10-17T06:46:59;17.50;99.90
5697;DHT22;2873;50.966;7.210;2022-10-17T06:49:25;17.60;99.90
5697;DHT22;2873;50.966;7.210;2022-10-17T06:51:52;17.60;99.90
5697;DHT22;2873;50.966;7.210;2022-10-17T06:54:17;17.60;99.90
5697;DHT22;2873;50.966;7.210;2022-10-17T06:56:43;17.70;99.90
5697;DHT22;2873;50.966;7.210;2022-10-17T06:59:09;17.70;99.90
5697;DHT22;2873;50.966;7.210;2022-10-17T07:01:35;17.70;99.90
5697;DHT22;2873;50.966;7.210;2022-10-17T07:04:01;17.70;99.90
5697;DHT22;2873;50.966;7.210;2022-10-17T07:06:26;17.80;99.90
5697;DHT22;2873;50.966;7.210;2022-10-17T07:08:52;17.70;99.90
5697;DHT22;2873;50.966;7.210;2022-10-17T07:11:20;17.80;99.90
5697;DHT22;2873;50.966;7.210;2022-10-17T07:13:46;18.00;99.90
5697;DHT22;2873;50.966;7.210;2022-10-17T07:16:13;18.00;99.90
5697;DHT22;2873;50.966;7.210;2022-10-17T07:18:39;18.00;99.90
5697;DHT22;2873;50.966;7.210;2022-10-17T07:21:05;18.00;99.90
5697;DHT22;2873;50.966;7.210;2022-10-17T07:23:33;18.10;99.90
5697;DHT22;2873;50.966;7.210;2022-10-17T07:26:04;18.30;99.90
5697;DHT22;2873;50.966;7.210;2022-10-17T07:28:35;18.40;99.90
5697;DHT22;2873;50.966;7.210;2022-10-17T07:31:16;18.40;99.90
5697;DHT22;2873;50.966;7.210;2022-10-17T07:33:43;18.40;99.90
5697;DHT22;2873;50.966;7.210;2022-10-17T07:36:08;18.50;99.90
5697;DHT22;2873;50.966;7.210;2022-10-17T07:38:35;18.50;99.90
5697;DHT22;2873;50.966;7.210;2022-10-17T07:41:02;18.40;99.90
5697;DHT22;2873;50.966;7.210;2022-10-17T07:43:28;18.50;99.90
5697;DHT22;2873;50.966;7.210;2022-10-17T07:45:54;18.60;99.90
5697;DHT22;2873;50.966;7.210;2022-10-17T07:48:21;18.60;99.90
5697;DHT22;2873;50.966;7.210;2022-10-17T07:50:48;18.70;99.90
5697;DHT22;2873;50.966;7.210;2022-10-17T07:53:13;18.80;99.90
5697;DHT22;2873;50.966;7.210;2022-10-17T07:55:40;18.80;99.90
5697;DHT22;2873;50.966;7.210;2022-10-17T07:58:06;18.90;99.90
5697;DHT22;2873;50.966;7.210;2022-10-17T08:00:32;19.00;99.90
5697;DHT22;2873;50.966;7.210;2022-10-17T08:02:58;19.00;99.90
5697;DHT22;2873;50.966;7.210;2022-10-17T08:05:23;19.00;99.90
5697;DHT22;2873;50.966;7.210;2022-10-17T08:07:49;19.20;99.90
5697;DHT22;2873;50.966;7.210;2022-10-17T08:10:15;19.20;99.90
5697;DHT22;2873;50.966;7.210;2022-10-17T08:12:42;19.20;99.90
5697;DHT22;2873;50.966;7.210;2022-10-17T08:15:08;19.30;99.90
5697;DHT22;2873;50.966;7.210;2022-10-17T08:17:35;19.40;99.90
5697;DHT22;2873;50.966;7.210;2022-10-17T08:20:02;19.50;99.90
5697;DHT22;2873;50.966;7.210;2022-10-17T08:22:28;19.60;99.90
5697;DHT22;2873;50.966;7.210;2022-10-17T08:24:53;19.70;99.90
5697;DHT22;2873;50.966;7.210;2022-10-17T08:27:19;19.70;99.90
5697;DHT22;2873;50.966;7.210;2022-10-17T08:29:52;19.90;99.90
5697;DHT22;2873;50.966;7.210;2022-10-17T08:32:20;19.90;99.90
5697;DHT22;2873;50.966;7.210;2022-10-17T08:34:46;20.00;99.90
5697;DHT22;2873;50.966;7.210;2022-10-17T08:37:12;20.00;99.90
5697;DHT22;2873;50.966;7.210;2022-10-17T08:39:41;20.00;99.90
5697;DHT22;2873;50.966;7.210;2022-10-17T08:47:09;20.40;99.90
5697;DHT22;2873;50.966;7.210;2022-10-17T08:49:44;20.50;99.90
5697;DHT22;2873;50.966;7.210;2022-10-17T08:52:47;20.90;99.90
5697;DHT22;2873;50.966;7.210;2022-10-17T08:55:16;21.40;99.90
5697;DHT22;2873;50.966;7.210;2022-10-17T08:57:42;21.60;99.90
5697;DHT22;2873;50.966;7.210;2022-10-17T09:00:18;21.80;99.90
5697;DHT22;2873;50.966;7.210;2022-10-17T09:02:56;22.20;99.90
5697;DHT22;2873;50.966;7.210;2022-10-17T09:05:55;22.30;99.90
5697;DHT22;2873;50.966;7.210;2022-10-17T09:08:34;22.10;99.90
5697;DHT22;2873;50.966;7.210;2022-10-17T09:16:36;21.80;99.90
5697;DHT22;2873;50.966;7.210;2022-10-17T09:19:24;21.80;99.90
5697;DHT22;2873;50.966;7.210;2022-10-17T09:21:55;21.90;99.90
5697;DHT22;2873;50.966;7.210;2022-10-17T09:24:33;22.10;99.90
5697;DHT22;2873;50.966;7.210;2022-10-17T09:27:02;22.50;99.90
5697;DHT22;2873;50.966;7.210;2022-10-17T09:29:28;22.60;99.90
5697;DHT22;2873;50.966;7.210;2022-10-17T09:32:01;22.70;99.90
5697;DHT22;2873;50.966;7.210;2022-10-17T09:34:30;22.50;99.90
5697;DHT22;2873;50.966;7.210;2022-10-17T09:37:00;22.50;99.90
5697;DHT22;2873;50.966;7.210;2022-10-17T09:39:27;22.60;99.90
5697;DHT22;2873;50.966;7.210;2022-10-17T09:42:00;22.70;99.90
5697;DHT22;2873;50.966;7.210;2022-10-17T09:47:29;22.70;99.90
5697;DHT22;2873;50.966;7.210;2022-10-17T09:49:56;22.70;99.90
5697;DHT22;2873;50.966;7.210;2022-10-17T09:52:35;22.70;99.90
5697;DHT22;2873;50.966;7.210;2022-10-17T10:00:40;21.80;99.90
5697;DHT22;2873;50.966;7.210;2022-10-17T10:03:19;21.90;99.90
5697;DHT22;2873;50.966;7.210;2022-10-17T10:06:02;22.00;99.90
5697;DHT22;2873;50.966;7.210;2022-10-17T10:08:34;22.00;99.90
5697;DHT22;2873;50.966;7.210;2022-10-17T10:11:05;22.10;99.90
5697;DHT22;2873;50.966;7.210;2022-10-17T10:13:33;22.20;99.90
5697;DHT22;2873;50.966;7.210;2022-10-17T10:16:30;22.20;99.90
5697;DHT22;2873;50.966;7.210;2022-10-17T10:18:56;22.30;99.90
5697;DHT22;2873;50.966;7.210;2022-10-17T10:21:24;22.50;99.90
5697;DHT22;2873;50.966;7.210;2022-10-17T10:26:47;23.40;99.90
5697;DHT22;2873;50.966;7.210;2022-10-17T10:29:47;24.30;99.90
5697;DHT22;2873;50.966;7.210;2022-10-17T10:32:30;25.50;99.90
5697;DHT22;2873;50.966;7.210;2022-10-17T10:34:57;25.80;99.90
5697;DHT22;2873;50.966;7.210;2022-10-17T10:37:37;25.80;99.90
5697;DHT22;2873;50.966;7.210;2022-10-17T10:42:34;25.50;99.90
5697;DHT22;2873;50.966;7.210;2022-10-17T10:47:55;24.80;99.90
5697;DHT22;2873;50.966;7.210;2022-10-17T10:50:31;24.50;99.90
5697;DHT22;2873;50.966;7.210;2022-10-17T10:55:43;24.20;99.90
5697;DHT22;2873;50.966;7.210;2022-10-17T11:00:54;23.40;99.90
5697;DHT22;2873;50.966;7.210;2022-10-17T11:03:46;23.20;99.90
5697;DHT22;2873;50.966;7.210;2022-10-17T11:06:20;23.10;99.90
5697;DHT22;2873;50.966;7.210;2022-10-17T11:08:50;23.00;99.90
5697;DHT22;2873;50.966;7.210;2022-10-17T11:13:59;23.10;99.90
5697;DHT22;2873;50.966;7.210;2022-10-17T11:16:43;23.00;99.90
5697;DHT22;2873;50.966;7.210;2022-10-17T11:19:37;23.00;99.90
5697;DHT22;2873;50.966;7.210;2022-10-17T11:24:52;22.60;99.90
5697;DHT22;2873;50.966;7.210;2022-10-17T11:27:22;22.50;99.90
5697;DHT22;2873;50.966;7.210;2022-10-17T11:29:47;22.40;99.90
5697;DHT22;2873;50.966;7.210;2022-10-17T11:32:22;22.40;99.90
5697;DHT22;2873;50.966;7.210;2022-10-17T11:34:59;22.20;99.90
5697;DHT22;2873;50.966;7.210;2022-10-17T11:37:38;22.10;99.90
5697;DHT22;2873;50.966;7.210;2022-10-17T11:40:30;22.00;99.90
5697;DHT22;2873;50.966;7.210;2022-10-17T11:43:05;21.90;99.90
5697;DHT22;2873;50.966;7.210;2022-10-17T11:45:41;22.10;99.90
5697;DHT22;2873;50.966;7.210;2022-10-17T11:48:38;22.20;99.90
5697;DHT22;2873;50.966;7.210;2022-10-17T11:51:09;22.20;99.90
5697;DHT22;2873;50.966;7.210;2022-10-17T11:54:03;22.40;99.90
5697;DHT22;2873;50.966;7.210;2022-10-17T11:56:37;22.40;99.90
5697;DHT22;2873;50.966;7.210;2022-10-17T11:59:29;22.40;99.90
5697;DHT22;2873;50.966;7.210;2022-10-17T12:02:04;22.40;99.90
5697;DHT22;2873;50.966;7.210;2022-10-17T12:05:39;22.30;99.90
5697;DHT22;2873;50.966;7.210;2022-10-17T12:08:19;22.30;99.90
5697;DHT22;2873;50.966;7.210;2022-10-17T12:11:22;22.30;99.90
5697;DHT22;2873;50.966;7.210;2022-10-17T12:18:45;22.50;99.90
5697;DHT22;2873;50.966;7.210;2022-10-17T12:21:11;22.40;99.90
5697;DHT22;2873;50.966;7.210;2022-10-17T12:23:37;22.40;99.90
5697;DHT22;2873;50.966;7.210;2022-10-17T12:26:08;22.30;99.90
5697;DHT22;2873;50.966;7.210;2022-10-17T12:28:41;22.30;99.90
5697;DHT22;2873;50.966;7.210;2022-10-17T12:31:21;22.30;99.90
5697;DHT22;2873;50.966;7.210;2022-10-17T12:33:50;22.20;99.90
5697;DHT22;2873;50.966;7.210;2022-10-17T12:49:45;22.30;99.90
5697;DHT22;2873;50.966;7.210;2022-10-17T12:52:50;22.30;99.90
5697;DHT22;2873;50.966;7.210;2022-10-17T12:55:12;22.40;99.90
5697;DHT22;2873;50.966;7.210;2022-10-17T13:00:24;22.20;99.90
5697;DHT22;2873;50.966;7.210;2022-10-17T13:03:00;22.20;99.90
5697;DHT22;2873;50.966;7.210;2022-10-17T13:05:32;22.20;99.90
5697;DHT22;2873;50.966;7.210;2022-10-17T13:08:01;22.40;99.90
5697;DHT22;2873;50.966;7.210;2022-10-17T13:10:31;22.30;99.90
5697;DHT22;2873;50.966;7.210;2022-10-17T13:15:32;22.50;99.90
5697;DHT22;2873;50.966;7.210;2022-10-17T13:18:00;22.50;99.90
5697;DHT22;2873;50.966;7.210;2022-10-17T13:20:29;22.70;99.90
5697;DHT22;2873;50.966;7.210;2022-10-17T13:22:55;22.60;99.90
5697;DHT22;2873;50.966;7.210;2022-10-17T13:25:22;22.60;99.90
5697;DHT22;2873;50.966;7.210;2022-10-17T13:27:48;22.50;99.90
5697;DHT22;2873;50.966;7.210;2022-10-17T13:30:30;22.60;99.90
5697;DHT22;2873;50.966;7.210;2022-10-17T13:32:55;22.60;99.90
5697;DHT22;2873;50.966;7.210;2022-10-17T13:35:28;22.50;99.90
5697;DHT22;2873;50.966;7.210;2022-10-17T13:37:54;22.40;99.90
5697;DHT22;2873;50.966;7.210;2022-10-17T13:40:26;22.40;99.90
5697;DHT22;2873;50.966;7.210;2022-10-17T13:42:55;22.40;99.90
5697;DHT22;2873;50.966;7.210;2022-10-17T13:45:36;22.30;99.90
5697;DHT22;2873;50.966;7.210;2022-10-17T13:48:05;22.20;99.90
5697;DHT22;2873;50.966;7.210;2022-10-17T13:50:41;22.40;99.90
5697;DHT22;2873;50.966;7.210;2022-10-17T13:53:32;22.40;99.90
5697;DHT22;2873;50.966;7.210;2022-10-17T13:58:39;22.40;99.90
5697;DHT22;2873;50.966;7.210;2022-10-17T14:01:06;22.50;99.90
5697;DHT22;2873;50.966;7.210;2022-10-17T14:03:32;22.50;99.90
5697;DHT22;2873;50.966;7.210;2022-10-17T14:06:21;22.60;99.90
5697;DHT22;2873;50.966;7.210;2022-10-17T14:08:50;22.50;99.90
5697;DHT22;2873;50.966;7.210;2022-10-17T14:11:37;22.50;99.90
5697;DHT22;2873;50.966;7.210;2022-10-17T14:14:06;22.60;99.90
5697;DHT22;2873;50.966;7.210;2022-10-17T14:16:40;22.40;99.90
5697;DHT22;2873;50.966;7.210;2022-10-17T14:19:19;22.50;99.90
5697;DHT22;2873;50.966;7.210;2022-10-17T14:21:48;22.40;99.90
5697;DHT22;2873;50.966;7.210;2022-10-17T14:26:47;22.60;99.90
5697;DHT22;2873;50.966;7.210;2022-10-17T14:29:31;22.50;99.90
5697;DHT22;2873;50.966;7.210;2022-10-17T14:32:06;22.60;99.90
5697;DHT22;2873;50.966;7.210;2022-10-17T14:34:37;22.60;99.90
5697;DHT22;2873;50.966;7.210;2022-10-17T14:37:45;22.70;99.90
5697;DHT22;2873;50.966;7.210;2022-10-17T14:40:16;22.70;99.90
5697;DHT22;2873;50.966;7.210;2022-10-17T14:42:43;22.70;99.90
5697;DHT22;2873;50.966;7.210;2022-10-17T14:45:15;22.60;99.90
5697;DHT22;2873;50.966;7.210;2022-10-17T14:47:49;22.60;99.90
5697;DHT22;2873;50.966;7.210;2022-10-17T14:52:40;22.50;99.90
5697;DHT22;2873;50.966;7.210;2022-10-17T14:55:23;22.50;99.90
5697;DHT22;2873;50.966;7.210;2022-10-17T14:57:49;22.50;99.90
5697;DHT22;2873;50.966;7.210;2022-10-17T15:00:17;22.60;99.90
5697;DHT22;2873;50.966;7.210;2022-10-17T15:02:44;22.50;99.90
5697;DHT22;2873;50.966;7.210;2022-10-17T15:05:10;22.50;99.90
5697;DHT22;2873;50.966;7.210;2022-10-17T15:07:36;22.40;99.90
5697;DHT22;2873;50.966;7.210;2022-10-17T15:10:02;22.40;99.90
5697;DHT22;2873;50.966;7.210;2022-10-17T15:12:28;22.30;99.90
5697;DHT22;2873;50.966;7.210;2022-10-17T15:14:53;22.30;99.90
5697;DHT22;2873;50.966;7.210;2022-10-17T15:17:25;22.30;99.90
5697;DHT22;2873;50.966;7.210;2022-10-17T15:19:51;22.30;99.90
5697;DHT22;2873;50.966;7.210;2022-10-17T15:22:17;22.40;99.90
5697;DHT22;2873;50.966;7.210;2022-10-17T15:24:43;22.30;99.90
5697;DHT22;2873;50.966;7.210;2022-10-17T15:27:21;22.30;99.90
5697;DHT22;2873;50.966;7.210;2022-10-17T15:29:47;22.20;99.90
5697;DHT22;2873;50.966;7.210;2022-10-17T15:32:13;22.20;99.90
5697;DHT22;2873;50.966;7.210;2022-10-17T15:34:39;22.30;99.90
5697;DHT22;2873;50.966;7.210;2022-10-17T15:37:06;22.30;99.90
5697;DHT22;2873;50.966;7.210;2022-10-17T15:39:32;22.30;99.90
5697;DHT22;2873;50.966;7.210;2022-10-17T15:41:57;22.20;99.90
5697;DHT22;2873;50.966;7.210;2022-10-17T15:44:24;22.30;99.90
5697;DHT22;2873;50.966;7.210;2022-10-17T15:46:49;22.30;99.90
5697;DHT22;2873;50.966;7.210;2022-10-17T15:49:17;22.30;99.90
5697;DHT22;2873;50.966;7.210;2022-10-17T15:51:44;22.30;99.90
5697;DHT22;2873;50.966;7.210;2022-10-17T15:54:09;22.30;99.90
5697;DHT22;2873;50.966;7.210;2022-10-17T15:56:41;22.20;99.90
5697;DHT22;2873;50.966;7.210;2022-10-17T15:59:15;22.00;99.90
5697;DHT22;2873;50.966;7.210;2022-10-17T16:01:43;22.00;99.90
5697;DHT22;2873;50.966;7.210;2022-10-17T16:04:11;22.00;99.90
5697;DHT22;2873;50.966;7.210;2022-10-17T16:06:39;22.00;99.90
5697;DHT22;2873;50.966;7.210;2022-10-17T16:09:04;22.00;99.90
5697;DHT22;2873;50.966;7.210;2022-10-17T16:11:33;21.90;99.90
5697;DHT22;2873;50.966;7.210;2022-10-17T16:14:02;21.80;99.90
5697;DHT22;2873;50.966;7.210;2022-10-17T16:16:28;21.80;99.90
5697;DHT22;2873;50.966;7.210;2022-10-17T16:18:53;21.80;99.90
5697;DHT22;2873;50.966;7.210;2022-10-17T16:21:24;22.00;99.90
5697;DHT22;2873;50.966;7.210;2022-10-17T16:23:51;21.80;99.90
5697;DHT22;2873;50.966;7.210;2022-10-17T16:26:17;21.70;99.90
5697;DHT22;2873;50.966;7.210;2022-10-17T16:28:43;21.80;99.90
5697;DHT22;2873;50.966;7.210;2022-10-17T16:31:24;21.70;99.90
5697;DHT22;2873;50.966;7.210;2022-10-17T16:33:52;21.60;99.90
5697;DHT22;2873;50.966;7.210;2022-10-17T16:36:18;21.60;99.90
5697;DHT22;2873;50.966;7.210;2022-10-17T16:38:44;21.60;99.90
5697;DHT22;2873;50.966;7.210;2022-10-17T16:41:31;21.60;99.90
5697;DHT22;2873;50.966;7.210;2022-10-17T16:44:00;21.50;99.90
5697;DHT22;2873;50.966;7.210;2022-10-17T16:46:28;21.50;99.90
5697;DHT22;2873;50.966;7.210;2022-10-17T16:48:54;21.60;99.90
5697;DHT22;2873;50.966;7.210;2022-10-17T16:51:20;21.50;99.90
5697;DHT22;2873;50.966;7.210;2022-10-17T16:53:48;21.50;99.90
5697;DHT22;2873;50.966;7.210;2022-10-17T16:56:18;21.50;99.90
5697;DHT22;2873;50.966;7.210;2022-10-17T16:58:44;21.50;99.90
5697;DHT22;2873;50.966;7.210;2022-10-17T17:01:16;21.50;99.90
5697;DHT22;2873;50.966;7.210;2022-10-17T17:03:43;21.40;99.90
5697;DHT22;2873;50.966;7.210;2022-10-17T17:06:12;21.40;99.90
5697;DHT22;2873;50.966;7.210;2022-10-17T17:08:38;21.40;99.90
5697;DHT22;2873;50.966;7.210;2022-10-17T17:11:08;21.20;99.90
5697;DHT22;2873;50.966;7.210;2022-10-17T17:13:34;21.20;99.90
5697;DHT22;2873;50.966;7.210;2022-10-17T17:16:04;21.20;99.90
5697;DHT22;2873;50.966;7.210;2022-10-17T17:18:30;21.20;99.90
5697;DHT22;2873;50.966;7.210;2022-10-17T17:20:57;21.10;99.90
5697;DHT22;2873;50.966;7.210;2022-10-17T17:23:24;21.10;99.90
5697;DHT22;2873;50.966;7.210;2022-10-17T17:25:58;21.10;99.90
5697;DHT22;2873;50.966;7.210;2022-10-17T17:28:25;21.00;99.90
5697;DHT22;2873;50.966;7.210;2022-10-17T17:30:51;21.00;99.90
5697;DHT22;2873;50.966;7.210;2022-10-17T17:33:17;20.90;99.90
5697;DHT22;2873;50.966;7.210;2022-10-17T17:35:42;20.90;99.90
5697;DHT22;2873;50.966;7.210;2022-10-17T17:38:08;20.90;99.90
5697;DHT22;2873;50.966;7.210;2022-10-17T17:40:33;20.90;99.90
5697;DHT22;2873;50.966;7.210;2022-10-17T17:42:59;20.80;99.90
5697;DHT22;2873;50.966;7.210;2022-10-17T17:45:25;20.70;99.90
5697;DHT22;2873;50.966;7.210;2022-10-17T17:47:51;20.70;99.90
5697;DHT22;2873;50.966;7.210;2022-10-17T17:50:18;20.60;99.90
5697;DHT22;2873;50.966;7.210;2022-10-17T17:52:43;20.70;99.90
5697;DHT22;2873;50.966;7.210;2022-10-17T17:55:11;20.70;99.90